Time;durP1;ratioP1;P1;durP2;ratioP2;P2;SDS_P1;SDS_P2;PMS_P1;PMS_P2;Temp;Humidity;BMP_temperature;BMP_pressure;BME280_temperature;BME280_humidity;BME280_pressure;Samples;Min_cycle;Max_cycle;Signal;HPM_P1;HPM_P2
2023/07/28 00:02:05;;;;;;;2.88;1.48;;;;;;;20.57;100.00;100633.53;5055125;28;20506;-76
2023/07/28 00:04:31;;;;;;;2.42;1.20;;;;;;;20.55;100.00;100644.88;5073254;28;20091;-75
2023/07/28 00:06:56;;;;;;;2.25;1.42;;;;;;;20.35;100.00;100580.59;5073289;28;20032;-76
2023/07/28 00:09:23;;;;;;;3.63;1.40;;;;;;;20.54;100.00;100607.03;5073222;28;20542;-78
2023/07/28 00:11:48;;;;;;;2.78;1.52;;;;;;;21.01;100.00;100628.34;5072908;28;20545;-77
2023/07/28 00:14:14;;;;;;;3.95;1.20;;;;;;;20.78;100.00;100561.63;5055608;28;20067;-77
2023/07/28 00:16:39;;;;;;;2.88;1.23;;;;;;;20.60;100.00;100623.00;5073191;28;20036;-76
2023/07/28 00:19:05;;;;;;;2.60;1.40;;;;;;;20.43;100.00;100633.50;5072902;28;20033;-76
2023/07/28 00:21:30;;;;;;;2.00;1.35;;;;;;;20.95;100.00;100635.59;5072772;28;20178;-77
2023/07/28 00:23:56;;;;;;;2.25;1.42;;;;;;;21.09;100.00;100623.53;5073452;28;20047;-74
2023/07/28 00:26:21;;;;;;;2.58;1.20;;;;;;;20.99;100.00;100622.41;5072424;28;20495;-75
2023/07/28 00:28:46;;;;;;;1.70;1.30;;;;;;;20.73;100.00;100631.72;5072707;28;20022;-75
2023/07/28 00:31:12;;;;;;;2.45;1.48;;;;;;;20.90;100.00;100624.72;5072802;28;20052;-74
2023/07/28 00:33:37;;;;;;;4.38;1.40;;;;;;;20.61;100.00;100567.00;5072640;28;20029;-76
2023/07/28 00:36:03;;;;;;;5.07;1.60;;;;;;;20.60;100.00;100591.19;5072004;28;20468;-80
2023/07/28 00:38:28;;;;;;;1.85;1.30;;;;;;;20.92;100.00;100618.50;5072128;28;20032;-77
2023/07/28 00:40:54;;;;;;;2.15;1.35;;;;;;;20.13;100.00;100525.94;5072290;28;20041;-77
2023/07/28 00:43:19;;;;;;;3.92;1.35;;;;;;;20.56;100.00;100562.09;5072050;28;20475;-77
2023/07/28 00:45:45;;;;;;;2.67;1.30;;;;;;;20.65;100.00;100571.06;5072883;28;20028;-77
2023/07/28 00:48:13;;;;;;;4.13;1.30;;;;;;;20.73;100.00;100634.28;5072457;28;20101;-75
2023/07/28 00:50:42;;;;;;;2.97;1.35;;;;;;;20.53;100.00;100665.63;5072669;28;20036;-77
2023/07/28 00:53:07;;;;;;;2.60;1.33;;;;;;;20.62;100.00;100621.16;5072810;28;20056;-77
2023/07/28 00:55:33;;;;;;;2.47;1.23;;;;;;;20.47;100.00;100590.22;5055004;28;20056;-77
2023/07/28 00:57:59;;;;;;;1.45;1.10;;;;;;;20.72;100.00;100668.81;5072296;28;20032;-76
2023/07/28 01:00:24;;;;;;;2.17;1.30;;;;;;;20.64;100.00;100662.41;5072563;28;20383;-77
2023/07/28 01:02:50;;;;;;;2.05;1.20;;;;;;;20.12;100.00;100599.16;5054653;28;20021;-77
2023/07/28 01:05:15;;;;;;;1.92;1.30;;;;;;;20.37;100.00;100630.44;5072537;28;20033;-78
2023/07/28 01:08:02;;;;;;;4.53;1.48;;;;;;;20.61;100.00;100653.09;5073373;28;20029;-78
2023/07/28 01:10:32;;;;;;;4.13;1.50;;;;;;;20.58;100.00;100660.22;5072507;28;20037;-77
2023/07/28 01:12:58;;;;;;;2.22;1.33;;;;;;;20.27;100.00;100575.91;5072914;28;20040;-76
2023/07/28 01:15:23;;;;;;;2.80;1.20;;;;;;;20.12;100.00;100588.84;5072673;28;20028;-76
2023/07/28 01:17:49;;;;;;;2.78;1.40;;;;;;;20.65;100.00;100661.50;5072225;28;20479;-75
2023/07/28 01:20:15;;;;;;;1.52;1.23;;;;;;;20.35;100.00;100609.88;5072189;28;20024;-76
2023/07/28 01:22:53;;;;;;;2.60;1.38;;;;;;;20.28;100.00;100600.78;5072538;28;20036;-76
2023/07/28 01:25:41;;;;;;;2.55;1.40;;;;;;;20.47;100.00;100667.75;5073343;28;20078;-77
2023/07/28 01:28:07;;;;;;;3.90;1.40;;;;;;;20.35;100.00;100653.78;5073477;28;20054;-75
2023/07/28 01:30:33;;;;;;;2.80;1.38;;;;;;;20.53;100.00;100647.56;5072225;28;20107;-76
2023/07/28 01:32:58;;;;;;;2.80;1.27;;;;;;;20.30;100.00;100600.72;5054359;28;20055;-75
2023/07/28 01:35:26;;;;;;;1.98;1.60;;;;;;;20.39;100.00;100646.69;5080641;28;20052;-77
2023/07/28 01:37:51;;;;;;;2.20;1.40;;;;;;;20.35;100.00;100656.34;5066146;28;20074;-77
2023/07/28 01:40:18;;;;;;;2.92;1.75;;;;;;;20.20;100.00;100594.44;5072816;28;20028;-75
2023/07/28 01:42:43;;;;;;;1.83;1.50;;;;;;;20.47;100.00;100665.16;5071618;28;20039;-76
2023/07/28 01:45:09;;;;;;;3.70;1.70;;;;;;;20.41;100.00;100657.75;5053942;28;20025;-76
2023/07/28 01:47:34;;;;;;;2.97;1.38;;;;;;;20.40;100.00;100646.59;5071844;28;20076;-76
2023/07/28 01:50:00;;;;;;;3.08;1.50;;;;;;;20.46;100.00;100643.66;5072456;28;20032;-75
2023/07/28 01:52:25;;;;;;;3.08;1.60;;;;;;;20.19;100.00;100650.41;5057655;28;20029;-75
2023/07/28 01:54:51;;;;;;;2.45;1.48;;;;;;;20.39;100.00;100632.00;5075803;28;20418;-75
2023/07/28 01:57:17;;;;;;;3.17;1.60;;;;;;;20.06;100.00;100576.28;5075026;28;20036;-76
2023/07/28 01:59:42;;;;;;;2.83;1.50;;;;;;;19.96;100.00;100569.97;5057533;28;20115;-78
2023/07/28 02:02:08;;;;;;;4.45;1.67;;;;;;;19.76;100.00;100535.81;5042772;28;20127;-77
2023/07/28 02:04:33;;;;;;;3.90;1.40;;;;;;;20.28;100.00;100625.81;5048333;28;20419;-76
2023/07/28 02:06:59;;;;;;;2.88;1.50;;;;;;;19.62;100.00;100496.22;5037837;28;20033;-76
2023/07/28 02:09:24;;;;;;;2.47;1.48;;;;;;;20.35;100.00;100627.94;5054930;28;20037;-75
2023/07/28 02:11:50;;;;;;;2.03;1.40;;;;;;;19.58;100.00;100534.25;5055882;28;20021;-79
2023/07/28 02:14:15;;;;;;;3.13;1.60;;;;;;;19.96;100.00;100595.78;5054696;28;20087;-78
2023/07/28 02:16:40;;;;;;;4.60;1.70;;;;;;;20.01;100.00;100623.00;5037136;28;20068;-76
2023/07/28 02:19:06;;;;;;;3.40;1.83;;;;;;;19.90;100.00;100630.53;5036905;28;20029;-76
2023/07/28 02:21:31;;;;;;;5.38;1.70;;;;;;;19.67;100.00;100571.59;5055117;28;20033;-76
2023/07/28 02:23:57;;;;;;;3.15;1.83;;;;;;;20.30;100.00;100635.09;5054954;28;20025;-77
2023/07/28 02:26:22;;;;;;;2.47;1.40;;;;;;;20.19;100.00;100646.97;5037457;28;20032;-77
2023/07/28 02:28:47;;;;;;;1.65;1.50;;;;;;;19.59;100.00;100595.25;5054935;28;20078;-79
2023/07/28 02:31:13;;;;;;;3.65;1.70;;;;;;;20.02;100.00;100663.41;5055454;28;20040;-79
2023/07/28 02:33:38;;;;;;;4.90;1.40;;;;;;;19.94;100.00;100639.75;5054538;28;20059;-77
2023/07/28 02:36:05;;;;;;;2.20;1.42;;;;;;;19.42;100.00;100623.72;5037522;28;20028;-79
2023/07/28 02:38:30;;;;;;;1.95;1.55;;;;;;;20.09;100.00;100680.22;5054788;28;20510;-80
2023/07/28 02:40:55;;;;;;;2.58;1.48;;;;;;;19.99;100.00;100686.78;5055103;28;20029;-79
2023/07/28 02:43:21;;;;;;;2.78;1.73;;;;;;;19.40;100.00;100620.41;5054359;28;20029;-79
2023/07/28 02:45:56;;;;;;;1.58;1.40;;;;;;;19.74;100.00;100671.00;5054452;28;20150;-78
2023/07/28 02:48:22;;;;;;;3.15;1.58;;;;;;;19.47;100.00;100637.19;5069569;28;20032;-76
2023/07/28 02:50:51;;;;;;;7.75;2.03;;;;;;;19.86;100.00;100696.16;5075150;28;20407;-79
2023/07/28 02:53:16;;;;;;;3.88;1.85;;;;;;;19.82;100.00;100694.66;5074572;28;20032;-77
2023/07/28 02:55:43;;;;;;;3.45;1.60;;;;;;;19.30;100.00;100636.41;5056390;28;20077;-78
2023/07/28 02:58:09;;;;;;;1.85;1.65;;;;;;;19.57;100.00;100705.44;5073537;28;20039;-76
2023/07/28 03:00:40;;;;;;;4.20;1.70;;;;;;;19.07;100.00;100601.53;5070064;28;20036;-74
2023/07/28 03:03:10;;;;;;;2.35;1.80;;;;;;;19.36;100.00;100643.84;5058689;28;20029;-78
2023/07/28 03:05:36;;;;;;;2.92;1.70;;;;;;;19.38;100.00;100704.75;5036502;28;20040;-80
2023/07/28 03:08:01;;;;;;;5.43;2.20;;;;;;;19.36;100.00;100647.25;5035503;28;20407;-77
2023/07/28 03:10:26;;;;;;;3.80;2.13;;;;;;;18.74;100.00;100701.19;5036046;28;20094;-79
2023/07/28 03:12:52;;;;;;;4.97;2.70;;;;;;;18.80;100.00;100706.03;5036206;28;20033;-77
2023/07/28 03:15:17;;;;;;;5.00;2.85;;;;;;;18.13;100.00;100601.19;5053229;28;20605;-76
2023/07/28 03:17:43;;;;;;;7.28;3.05;;;;;;;18.40;100.00;100709.69;5072560;28;20051;-75
2023/07/28 03:20:08;;;;;;;6.95;2.95;;;;;;;18.71;100.00;100715.06;5072152;28;20033;-75
2023/07/28 03:22:34;;;;;;;7.32;3.05;;;;;;;17.77;100.00;100723.84;5045454;28;20043;-79
2023/07/28 03:24:59;;;;;;;6.97;3.70;;;;;;;17.32;100.00;100710.44;5053683;28;20610;-76
2023/07/28 03:27:25;;;;;;;5.43;3.67;;;;;;;16.93;100.00;100717.31;5053452;28;20036;-76
2023/07/28 03:29:51;;;;;;;6.63;4.10;;;;;;;17.13;100.00;100660.75;5057204;28;20040;-75
2023/07/28 03:32:16;;;;;;;4.78;3.70;;;;;;;17.26;100.00;100713.28;5061413;28;20044;-76
2023/07/28 03:34:42;;;;;;;9.73;4.60;;;;;;;16.55;100.00;100649.56;5053163;28;20025;-76
2023/07/28 03:37:07;;;;;;;9.98;4.25;;;;;;;17.58;100.00;100715.31;5035630;28;20536;-76
2023/07/28 03:39:32;;;;;;;9.48;4.45;;;;;;;16.59;100.00;100658.81;5056935;28;20028;-78
2023/07/28 03:41:58;;;;;;;6.43;3.97;;;;;;;16.51;100.00;100712.19;5039096;28;20028;-79
2023/07/28 03:44:24;;;;;;;9.27;4.47;;;;;;;16.99;100.00;100711.91;5053166;28;20044;-75
2023/07/28 03:46:49;;;;;;;10.43;4.40;;;;;;;17.48;100.00;100723.47;5052477;28;20422;-73
2023/07/28 03:49:15;;;;;;;12.00;4.63;;;;;;;17.23;100.00;100651.75;5055755;28;20039;-77
2023/07/28 03:51:46;;;;;;;4.93;4.25;;;;;;;17.41;100.00;100715.16;5072742;28;20418;-74
2023/07/28 03:54:11;;;;;;;6.65;4.28;;;;;;;17.07;100.00;100714.97;5054656;28;20024;-76
2023/07/28 03:56:37;;;;;;;7.75;4.55;;;;;;;17.49;100.00;100720.84;5054522;28;20035;-82
2023/07/28 03:59:02;;;;;;;8.25;4.80;;;;;;;17.08;100.00;100655.81;5063458;28;20166;-78
2023/07/28 04:01:28;;;;;;;11.20;4.97;;;;;;;17.59;100.00;100705.88;5073049;28;20050;-74
2023/07/28 04:03:53;;;;;;;9.80;4.32;;;;;;;18.98;100.00;100620.06;5052987;28;20182;-78
2023/07/28 04:06:19;;;;;;;10.35;4.90;;;;;;;17.45;100.00;100729.56;5035108;28;20051;-80
2023/07/28 04:08:44;;;;;;;9.10;4.95;;;;;;;17.20;100.00;100740.09;5052821;28;20021;-77
2023/07/28 04:11:10;;;;;;;8.07;5.63;;;;;;;17.25;100.00;100738.13;5034814;28;20030;-78
2023/07/28 04:13:35;;;;;;;8.48;5.40;;;;;;;16.98;100.00;100718.78;5051196;28;20088;-77
2023/07/28 04:16:01;;;;;;;11.38;5.60;;;;;;;17.22;100.00;100729.72;5062137;28;20016;-80
2023/07/28 04:18:27;;;;;;;13.00;5.65;;;;;;;17.58;100.00;100724.75;5072265;28;20036;-78
2023/07/28 04:20:53;;;;;;;10.70;5.75;;;;;;;17.74;100.00;100725.72;5072636;28;20037;-77
2023/07/28 04:23:18;;;;;;;11.40;6.00;;;;;;;17.26;100.00;100692.72;5072413;28;20024;-76
2023/07/28 04:25:44;;;;;;;11.13;6.32;;;;;;;17.62;100.00;100716.00;5071900;28;20040;-77
2023/07/28 04:28:09;;;;;;;13.55;8.45;;;;;;;17.17;100.00;100665.66;5054491;28;20032;-76
2023/07/28 04:30:35;;;;;;;18.25;9.65;;;;;;;18.00;100.00;100745.97;5072719;28;20021;-78
2023/07/28 04:33:00;;;;;;;28.13;18.27;;;;;;;17.46;100.00;100689.25;5071994;28;20028;-77
2023/07/28 04:35:26;;;;;;;32.97;25.42;;;;;;;17.53;100.00;100654.72;5072422;28;20422;-77
2023/07/28 04:37:51;;;;;;;20.63;13.15;;;;;;;17.64;100.00;100725.31;5071954;28;20034;-76
2023/07/28 04:40:16;;;;;;;15.60;8.80;;;;;;;17.79;100.00;100675.72;5059180;28;20039;-76
2023/07/28 04:42:42;;;;;;;11.50;6.60;;;;;;;17.48;100.00;100693.44;5047544;28;20037;-78
2023/07/28 04:45:08;;;;;;;14.80;7.22;;;;;;;18.42;100.00;100695.00;5051927;28;20451;-75
2023/07/28 04:47:34;;;;;;;12.18;7.70;;;;;;;18.61;100.00;100760.22;5033560;28;20096;-75
2023/07/28 04:49:59;;;;;;;12.90;7.72;;;;;;;18.73;100.00;100754.47;5053654;28;20017;-76
2023/07/28 04:52:25;;;;;;;10.75;7.20;;;;;;;18.33;100.00;100754.69;5058037;28;20056;-76
2023/07/28 04:54:50;;;;;;;9.38;6.45;;;;;;;17.70;100.00;100654.75;5052279;28;20036;-75
2023/07/28 04:57:17;;;;;;;9.25;6.07;;;;;;;18.34;100.00;100624.22;5051604;28;20103;-71
2023/07/28 04:59:43;;;;;;;12.38;6.60;;;;;;;18.82;100.00;100697.31;5051710;28;20025;-76
2023/07/28 05:02:08;;;;;;;12.57;8.20;;;;;;;18.82;100.00;100712.78;5051686;28;20515;-75
2023/07/28 05:04:36;;;;;;;21.05;10.88;;;;;;;18.80;100.00;100732.63;5051155;28;20021;-76
2023/07/28 05:07:01;;;;;;;14.88;8.65;;;;;;;19.29;100.00;100706.97;5051263;28;20037;-76
2023/07/28 05:09:28;;;;;;;7.78;5.10;;;;;;;18.94;100.00;100735.38;5051727;28;20495;-76
2023/07/28 05:11:53;;;;;;;9.48;5.20;;;;;;;19.28;100.00;100765.44;5033583;28;20041;-75
2023/07/28 05:14:19;;;;;;;9.02;4.88;;;;;;;19.61;100.00;100706.13;5051354;28;20033;-75
2023/07/28 05:16:44;;;;;;;9.48;5.18;;;;;;;20.00;100.00;100708.28;5033429;28;20477;-76
2023/07/28 05:19:09;;;;;;;11.60;5.20;;;;;;;20.27;100.00;100773.94;5051656;28;20558;-77
2023/07/28 05:21:35;;;;;;;11.50;5.88;;;;;;;20.00;100.00;100781.41;5033057;28;20487;-75
2023/07/28 05:24:00;;;;;;;9.07;5.85;;;;;;;20.23;100.00;100777.59;5033876;28;20032;-75
2023/07/28 05:26:26;;;;;;;13.80;5.80;;;;;;;20.17;100.00;100794.25;5053488;28;20036;-74
2023/07/28 05:28:51;;;;;;;12.23;6.60;;;;;;;20.97;100.00;100775.97;5054891;28;20127;-75
2023/07/28 05:31:16;;;;;;;9.65;6.15;;;;;;;21.08;100.00;100786.53;5037537;28;20029;-75
2023/07/28 05:33:42;;;;;;;9.30;6.30;;;;;;;20.91;100.00;100776.31;5054527;28;20035;-75
2023/07/28 05:36:07;;;;;;;9.27;5.80;;;;;;;21.00;100.00;100744.75;5054943;28;20794;-75
2023/07/28 05:38:33;;;;;;;7.45;5.00;;;;;;;21.03;100.00;100721.34;5055053;28;20068;-75
2023/07/28 05:41:03;;;;;;;8.80;5.00;;;;;;;21.65;100.00;100798.59;5054823;28;20033;-76
2023/07/28 05:43:31;;;;;;;8.27;4.10;;;;;;;20.80;100.00;100800.19;5054757;28;20029;-76
2023/07/28 05:46:01;;;;;;;6.07;3.45;;;;;;;21.55;100.00;100789.75;5037178;28;20032;-76
2023/07/28 05:48:26;;;;;;;7.00;3.80;;;;;;;21.88;100.00;100786.91;5054696;28;20045;-76
2023/07/28 05:50:53;;;;;;;5.85;3.30;;;;;;;22.27;100.00;100787.84;5054587;28;20159;-74
2023/07/28 05:53:21;;;;;;;5.78;3.75;;;;;;;22.27;100.00;100702.31;5055294;28;20032;-75
2023/07/28 05:55:47;;;;;;;4.75;3.30;;;;;;;21.91;100.00;100683.09;5036870;28;20112;-75
2023/07/28 05:58:13;;;;;;;6.82;3.15;;;;;;;22.44;100.00;100789.38;5055116;28;20037;-76
2023/07/28 06:00:40;;;;;;;7.65;3.20;;;;;;;22.87;100.00;100779.66;5053962;28;20464;-75
2023/07/28 06:03:06;;;;;;;6.28;3.40;;;;;;;22.49;100.00;100783.88;5036301;28;20033;-76
2023/07/28 06:05:31;;;;;;;5.28;3.13;;;;;;;22.60;100.00;100784.06;5054647;28;20114;-75
2023/07/28 06:07:57;;;;;;;4.80;3.10;;;;;;;23.17;100.00;100782.81;5054259;28;20119;-75
2023/07/28 06:10:22;;;;;;;4.82;2.78;;;;;;;22.89;100.00;100729.34;5054116;28;20114;-74
2023/07/28 06:12:48;;;;;;;4.18;2.50;;;;;;;23.02;100.00;100799.38;5054335;28;20149;-76
2023/07/28 06:15:13;;;;;;;5.35;2.50;;;;;;;23.45;100.00;100740.25;5036304;28;20123;-75
2023/07/28 06:17:38;;;;;;;3.38;2.25;;;;;;;23.70;100.00;100797.34;5054463;28;20553;-74
2023/07/28 06:20:04;;;;;;;3.70;2.30;;;;;;;23.08;100.00;100794.63;5036318;28;20037;-75
2023/07/28 06:22:30;;;;;;;3.45;2.58;;;;;;;23.76;100.00;100802.13;5053426;28;20453;-75
2023/07/28 06:24:55;;;;;;;4.70;2.28;;;;;;;22.92;100.00;100798.31;5053379;28;20178;-75
2023/07/28 06:27:21;;;;;;;4.93;2.25;;;;;;;23.22;100.00;100773.78;5054028;28;20130;-75
2023/07/28 06:29:46;;;;;;;7.93;2.30;;;;;;;23.19;100.00;100749.81;5054304;28;20025;-76
2023/07/28 06:32:11;;;;;;;3.88;2.35;;;;;;;23.64;100.00;100753.63;5054295;28;20404;-76
2023/07/28 06:34:37;;;;;;;4.57;2.20;;;;;;;23.76;100.00;100802.97;5053828;28;20025;-76
2023/07/28 06:37:02;;;;;;;5.60;2.30;;;;;;;24.34;100.00;100801.50;5052235;28;20107;-75
2023/07/28 06:39:29;;;;;;;8.43;2.67;;;;;;;24.31;100.00;100812.09;5035521;28;20037;-75
2023/07/28 06:41:55;;;;;;;4.18;1.90;;;;;;;24.20;100.00;100741.84;5036170;28;20025;-74
2023/07/28 06:44:20;;;;;;;3.13;1.83;;;;;;;23.41;100.00;100812.34;5053813;28;20033;-74
2023/07/28 06:46:47;;;;;;;2.88;1.80;;;;;;;24.84;100.00;100783.88;5053402;28;20086;-75
2023/07/28 06:49:13;;;;;;;2.53;2.00;;;;;;;;;;5035932;28;20025;-75
2023/07/28 06:51:38;;;;;;;5.90;1.63;;;;;;;24.02;100.00;100801.16;5036094;28;20083;-76
2023/07/28 06:54:03;;;;;;;5.50;1.70;;;;;;;24.09;100.00;100707.06;5053071;28;20485;-75
2023/07/28 06:56:29;;;;;;;4.47;1.70;;;;;;;25.33;100.00;100781.03;5035605;28;20028;-75
2023/07/28 06:58:54;;;;;;;3.67;1.60;;;;;;;24.61;100.00;100794.28;5053071;28;20124;-74
2023/07/28 07:01:21;;;;;;;5.03;1.80;;;;;;;24.93;100.00;100791.03;5053708;28;20086;-75
2023/07/28 07:03:47;;;;;;;1.92;1.48;;;;;;;25.15;100.00;100730.34;5053357;28;20021;-75
2023/07/28 07:06:12;;;;;;;1.80;1.58;;;;;;;25.04;100.00;100789.38;5035833;28;20099;-75
2023/07/28 07:08:38;;;;;;;3.08;1.20;;;;;;;24.64;100.00;100739.44;5035565;28;20419;-74
2023/07/28 07:11:05;;;;;;;2.83;1.52;;;;;;;25.19;100.00;100743.97;5053573;28;20553;-75
2023/07/28 07:13:31;;;;;;;5.05;1.92;;;;;;;25.48;100.00;100782.50;5035398;28;20124;-75
2023/07/28 07:15:57;;;;;;;5.97;2.05;;;;;;;25.18;100.00;100719.69;5035396;28;20029;-74
2023/07/28 07:18:22;;;;;;;2.30;1.40;;;;;;;25.67;100.00;100748.84;5053296;28;20059;-75
2023/07/28 07:20:48;;;;;;;5.07;1.60;;;;;;;24.65;100.00;100726.31;5052831;28;20111;-75
2023/07/28 07:23:13;;;;;;;26.48;3.97;;;;;;;25.97;100.00;100758.63;5052577;28;20116;-74
2023/07/28 07:25:39;;;;;;;4.32;1.80;;;;;;;25.69;100.00;100736.50;5035419;28;20064;-75
2023/07/28 07:28:06;;;;;;;1.80;1.25;;;;;;;26.21;100.00;100748.03;5052466;28;20166;-75
2023/07/28 07:30:34;;;;;;;3.13;1.55;;;;;;;26.13;100.00;100709.56;5053388;28;20028;-74
2023/07/28 07:32:59;;;;;;;4.30;1.60;;;;;;;25.35;100.00;100760.91;5052809;28;20108;-74
2023/07/28 07:35:25;;;;;;;2.83;1.48;;;;;;;26.05;100.00;100752.81;5052851;28;20119;-75
2023/07/28 07:37:50;;;;;;;2.85;1.55;;;;;;;26.24;100.00;100758.25;5052526;28;20029;-75
2023/07/28 07:40:16;;;;;;;2.80;1.88;;;;;;;27.02;100.00;100677.78;5060590;28;20036;-75
2023/07/28 07:42:43;;;;;;;3.17;1.75;;;;;;;27.12;100.00;100738.72;5048568;28;20036;-75
2023/07/28 07:45:11;;;;;;;3.88;1.60;;;;;;;26.75;100.00;100732.31;5051756;28;20059;-76
2023/07/28 07:47:36;;;;;;;5.30;2.75;;;;;;;26.04;100.00;100681.59;5053041;28;20067;-75
2023/07/28 07:50:02;;;;;;;5.18;3.80;;;;;;;25.92;100.00;100744.31;5034438;28;20480;-75
2023/07/28 07:52:28;;;;;;;3.63;1.80;;;;;;;26.95;100.00;100671.41;5034899;28;20033;-71
2023/07/28 07:54:53;;;;;;;3.58;1.40;;;;;;;26.21;100.00;100675.03;5052529;28;20032;-75
2023/07/28 07:57:19;;;;;;;3.25;1.20;;;;;;;27.11;100.00;100698.72;5052813;28;20059;-75
2023/07/28 07:59:44;;;;;;;2.42;1.38;;;;;;;27.06;100.00;100666.09;5052844;28;20036;-75
2023/07/28 08:02:09;;;;;;;3.45;1.20;;;;;;;27.24;100.00;100708.94;5052676;28;20116;-74
2023/07/28 08:04:36;;;;;;;2.63;1.60;;;;;;;27.44;100.00;100710.69;5055543;28;20028;-75
2023/07/28 08:07:04;;;;;;;1.75;1.13;;;;;;;27.77;100.00;100717.41;5056527;28;20056;-75
2023/07/28 08:09:29;;;;;;;1.63;1.38;;;;;;;28.06;100.00;100700.81;5034592;28;20025;-73
2023/07/28 08:11:55;;;;;;;1.90;1.30;;;;;;;27.01;100.00;100697.84;5052510;28;20416;-75
2023/07/28 08:14:20;;;;;;;2.08;1.30;;;;;;;27.33;100.00;100721.25;5052555;28;20025;-75
2023/07/28 08:16:46;;;;;;;4.65;1.40;;;;;;;27.53;100.00;100648.97;5051641;28;20410;-75
2023/07/28 08:19:12;;;;;;;2.55;1.30;;;;;;;26.64;100.00;100640.03;5034108;28;20191;-75
2023/07/28 08:21:37;;;;;;;2.45;1.33;;;;;;;27.61;100.00;100691.78;5052226;28;20052;-74
2023/07/28 08:24:04;;;;;;;2.17;1.10;;;;;;;26.41;100.00;100650.75;5051662;28;20553;-74
2023/07/28 08:26:30;;;;;;;1.65;1.20;;;;;;;27.68;100.00;100632.78;5051853;28;20563;-75
2023/07/28 08:28:55;;;;;;;3.92;1.30;;;;;;;27.54;100.00;100643.59;5051886;28;20090;-75
2023/07/28 08:31:21;;;;;;;2.75;1.10;;;;;;;28.61;100.00;100664.44;5034160;28;20036;-74
2023/07/28 08:33:46;;;;;;;1.38;0.98;;;;;;;26.79;100.00;100686.72;5050894;28;20037;-74
2023/07/28 08:36:12;;;;;;;1.67;1.13;;;;;;;27.08;100.00;100683.31;5051647;28;20028;-73
2023/07/28 08:38:38;;;;;;;1.73;1.20;;;;;;;27.95;100.00;100671.38;5051700;28;20033;-74
2023/07/28 08:41:05;;;;;;;1.88;1.20;;;;;;;28.07;100.00;100685.94;5051921;28;20031;-74
2023/07/28 08:43:31;;;;;;;2.58;1.00;;;;;;;28.31;100.00;100662.81;5033845;28;20032;-75
2023/07/28 08:45:57;;;;;;;1.90;1.20;;;;;;;27.64;100.00;100586.13;5051815;28;20032;-74
2023/07/28 08:48:23;;;;;;;1.60;1.10;;;;;;;28.20;100.00;100663.78;5051216;28;20111;-74
2023/07/28 08:50:49;;;;;;;2.30;1.23;;;;;;;27.28;100.00;100624.97;5034136;28;20087;-74
2023/07/28 08:53:15;;;;;;;1.92;1.40;;;;;;;28.50;100.00;100610.44;5033839;28;20037;-77
2023/07/28 08:55:41;;;;;;;2.88;1.20;;;;;;;27.94;100.00;100672.28;5051922;28;20029;-76
2023/07/28 08:58:16;;;;;;;1.50;1.00;;;;;;;29.25;100.00;100673.22;5052236;28;20115;-77
2023/07/28 09:00:41;;;;;;;4.28;1.38;;;;;;;28.47;100.00;100630.81;5051655;28;20028;-75
2023/07/28 09:03:10;;;;;;;4.70;1.27;;;;;;;27.52;100.00;100673.44;5051722;28;20024;-76
2023/07/28 09:05:35;;;;;;;3.90;1.38;;;;;;;27.86;100.00;100633.75;5051507;28;20112;-75
2023/07/28 09:08:01;;;;;;;2.78;1.30;;;;;;;28.93;100.00;100626.44;5051910;28;20132;-75
2023/07/28 09:10:40;;;;;;;2.33;1.85;;;;;;;28.68;100.00;100608.75;5051610;28;20032;-75
2023/07/28 09:13:11;;;;;;;3.28;1.65;;;;;;;28.11;100.00;100663.78;5051710;28;20385;-76
2023/07/28 09:15:36;;;;;;;2.65;1.48;;;;;;;29.45;100.00;100652.97;5033891;28;20052;-75
2023/07/28 09:18:01;;;;;;;2.75;2.00;;;;;;;29.00;100.00;100598.69;5051254;28;20128;-75
2023/07/28 09:20:34;;;;;;;2.28;1.40;;;;;;;27.82;100.00;100597.53;5050613;28;20029;-77
2023/07/28 09:23:00;;;;;;;2.60;1.75;;;;;;;29.07;100.00;100627.75;5033721;28;20108;-74
2023/07/28 09:25:28;;;;;;;3.03;1.55;;;;;;;29.77;100.00;100611.38;4682351;28;10000600;-74
2023/07/28 09:27:54;;;;;;;2.97;1.50;;;;;;;28.49;100.00;100598.31;5029757;28;20043;-73
2023/07/28 09:30:21;;;;;;;2.15;1.30;;;;;;;29.07;100.00;100643.47;5048178;28;20037;-73
2023/07/28 09:32:49;;;;;;;2.30;1.40;;;;;;;29.27;100.00;100590.03;5047408;28;20033;-73
2023/07/28 09:35:16;;;;;;;5.80;1.50;;;;;;;29.86;100.00;100636.69;5047971;28;20455;-74
2023/07/28 09:37:49;;;;;;;3.58;1.50;;;;;;;29.12;100.00;100621.09;5047425;28;20033;-75
2023/07/28 09:40:21;;;;;;;1.88;1.30;;;;;;;29.23;100.00;100616.69;5048455;28;20082;-74
2023/07/28 09:42:51;;;;;;;2.22;1.40;;;;;;;29.58;100.00;100585.25;5047555;28;20140;-73
2023/07/28 09:45:18;;;;;;;2.50;1.80;;;;;;;29.72;100.00;100603.97;5047808;28;20037;-74
2023/07/28 09:47:47;;;;;;;4.38;2.65;;;;;;;28.69;100.00;100594.69;5049558;28;20062;-69
2023/07/28 09:50:15;;;;;;;6.85;3.03;;;;;;;28.78;100.00;100643.59;5050151;28;20025;-68
2023/07/28 09:52:46;;;;;;;3.97;2.58;;;;;;;28.35;100.00;100614.47;5050326;28;20025;-72
2023/07/28 09:55:15;;;;;;;3.10;2.60;;;;;;;29.63;100.00;100635.47;5032373;28;20036;-74
2023/07/28 09:57:51;;;;;;;3.78;2.40;;;;;;;28.48;100.00;100567.88;5050273;28;20041;-73
2023/07/28 10:00:18;;;;;;;3.55;1.70;;;;;;;29.45;100.00;100543.72;5049931;28;20029;-74
2023/07/28 10:02:45;;;;;;;4.45;1.52;;;;;;;29.73;100.00;100625.78;5050550;28;20431;-75
2023/07/28 10:05:11;;;;;;;4.03;1.60;;;;;;;28.25;100.00;100616.25;5050267;28;20111;-75
2023/07/28 10:07:40;;;;;;;4.55;1.60;;;;;;;29.35;100.00;100555.22;5032921;28;20031;-73
2023/07/28 10:10:08;;;;;;;2.85;1.48;;;;;;;29.78;100.00;100602.53;5050304;28;20040;-74
2023/07/28 10:12:42;;;;;;;2.60;1.10;;;;;;;29.79;100.00;100602.38;5051563;28;20035;-76
2023/07/28 10:15:11;;;;;;;2.58;1.30;;;;;;;28.98;100.00;100605.88;5054959;28;20029;-77
2023/07/28 10:17:36;;;;;;;2.75;1.50;;;;;;;28.96;100.00;100599.16;5054906;28;20021;-77
2023/07/28 10:20:08;;;;;;;2.78;1.45;;;;;;;29.39;100.00;100546.09;5054429;28;20048;-79
2023/07/28 10:22:43;;;;;;;2.22;1.30;;;;;;;29.68;100.00;100523.06;5055234;28;20029;-77
2023/07/28 10:25:10;;;;;;;3.75;1.20;;;;;;;29.91;100.00;100542.66;5055338;28;20064;-73
2023/07/28 10:27:45;;;;;;;2.25;1.25;;;;;;;29.14;100.00;100544.22;5055199;28;20029;-75
2023/07/28 10:30:12;;;;;;;2.38;1.42;;;;;;;29.87;100.00;100557.06;5054887;28;20036;-76
2023/07/28 10:32:48;;;;;;;2.72;1.33;;;;;;;30.48;100.00;100575.38;5037130;28;20476;-77
2023/07/28 10:35:13;;;;;;;2.47;1.30;;;;;;;29.46;100.00;100576.78;5036812;28;20078;-77
2023/07/28 10:37:43;;;;;;;3.17;1.45;;;;;;;30.13;100.00;100562.31;5053978;28;20033;-76
2023/07/28 10:40:33;;;;;;;1.88;1.25;;;;;;;30.67;100.00;100575.94;5054706;28;20028;-74
2023/07/28 10:42:59;;;;;;;2.17;1.60;;;;;;;28.48;100.00;100567.06;5036508;28;20410;-75
2023/07/28 10:45:27;;;;;;;2.80;1.27;;;;;;;30.39;100.00;100526.41;5053972;28;20028;-76
2023/07/28 10:47:55;;;;;;;1.92;1.02;;;;;;;30.90;100.00;100507.94;5053652;28;20049;-76
2023/07/28 10:50:21;;;;;;;2.85;1.50;;;;;;;30.19;100.00;100502.16;5036680;28;20037;-77
2023/07/28 10:52:47;;;;;;;2.15;1.30;;;;;;;30.12;100.00;100540.50;5054175;28;20032;-76
2023/07/28 10:55:14;;;;;;;3.08;1.40;;;;;;;29.71;100.00;100473.78;5054380;28;20028;-75
2023/07/28 10:57:44;;;;;;;2.50;1.25;;;;;;;29.29;100.00;100471.97;5036151;28;20119;-75
2023/07/28 11:00:14;;;;;;;2.08;1.13;;;;;;;29.91;100.00;100530.34;5036281;28;20094;-76
2023/07/28 11:02:46;;;;;;;4.15;1.38;;;;;;;30.96;100.00;100485.47;5054621;28;20036;-77
2023/07/28 11:05:31;;;;;;;1.80;1.17;;;;;;;29.73;100.00;100460.56;5054234;28;20124;-72
2023/07/28 11:07:58;;;;;;;1.23;1.13;;;;;;;29.88;100.00;100474.75;5036176;28;20079;-75
2023/07/28 11:10:24;;;;;;;2.35;1.40;;;;;;;31.27;100.00;100516.22;5053882;28;20037;-76
2023/07/28 11:12:51;;;;;;;2.67;1.48;;;;;;;30.34;100.00;100505.06;5054326;28;20021;-77
2023/07/28 11:15:18;;;;;;;2.38;1.08;;;;;;;29.57;100.00;100452.53;5036434;28;20028;-75